createdAt,value
2023-05-04T00:04:45.353Z,77612.91
2023-05-04T00:12:19.569Z,77614.97
2023-05-04T00:19:54.711Z,77631.28
2023-05-04T00:27:28.470Z,77635.38
2023-05-04T00:35:03.779Z,77645.59
2023-05-04T00:42:37.622Z,77657.84
2023-05-04T00:50:13.861Z,77663.97
2023-05-04T00:57:50.474Z,77672.13
2023-05-04T01:05:32.204Z,77680.28
2023-05-04T01:13:09.731Z,77690.50
2023-05-04T01:20:45.090Z,77694.59
2023-05-04T01:28:26.350Z,77694.59
2023-05-04T01:36:00.927Z,77710.94
2023-05-04T01:43:37.298Z,77721.13
2023-05-04T01:51:11.044Z,77727.25
2023-05-04T01:58:46.244Z,77733.38
2023-05-04T02:06:20.027Z,77745.63
2023-05-04T02:13:55.237Z,77764.00
2023-05-04T02:21:29.507Z,77780.34
2023-05-04T02:29:05.802Z,77778.31
2023-05-04T02:36:39.621Z,77788.53
2023-05-04T02:44:15.183Z,77792.59
2023-05-04T02:59:42.411Z,77798.72
2023-05-04T03:07:16.428Z,77804.84
2023-05-04T03:14:51.977Z,77804.84
2023-05-04T03:22:25.951Z,77808.94
2023-05-04T03:30:01.202Z,77813.03
2023-05-04T03:37:35.353Z,77817.09
2023-05-04T03:45:12.069Z,77827.31
2023-05-04T03:52:46.018Z,77839.56
2023-05-04T04:00:21.942Z,77837.53
2023-05-04T04:07:55.974Z,77847.72
2023-05-04T04:15:31.250Z,77851.81
2023-05-04T04:23:05.263Z,77845.69
2023-05-04T04:30:40.884Z,77841.59
2023-05-04T04:38:14.612Z,77829.34
2023-05-04T04:46:07.272Z,77808.94
2023-05-04T04:53:41.448Z,77788.53
2023-05-04T05:01:18.127Z,77764.00
2023-05-04T05:08:52.501Z,77735.44
2023-05-04T05:16:28.128Z,77700.72
2023-05-04T05:24:02.774Z,77661.91
2023-05-04T05:31:38.385Z,77633.34
2023-05-04T05:39:12.617Z,77604.75
2023-05-04T05:54:39.749Z,77502.66
2023-05-04T06:02:15.293Z,77470.00
2023-05-04T06:09:49.391Z,77412.81
2023-05-04T06:17:24.809Z,77378.09
2023-05-04T06:25:03.742Z,77371.97
2023-05-04T06:32:41.457Z,77316.84
2023-05-04T06:40:16.729Z,77282.16
2023-05-04T06:47:52.561Z,77245.41
2023-05-04T06:55:26.490Z,77233.16
2023-05-04T07:03:02.152Z,77167.81
2023-05-04T07:10:36.100Z,77145.38
2023-05-04T07:18:11.670Z,77098.41
2023-05-04T07:25:45.811Z,77069.81
2023-05-04T07:33:21.340Z,77008.59
2023-05-04T07:40:55.707Z,76992.25
2023-05-04T07:48:31.294Z,76945.28
2023-05-04T07:56:14.899Z,76857.50
2023-05-04T08:03:50.239Z,76865.69
2023-05-04T08:11:24.903Z,76745.25
2023-05-04T08:19:01.616Z,76626.84
2023-05-04T08:26:38.351Z,76496.22
2023-05-04T08:34:13.648Z,76408.44
2023-05-04T08:41:47.701Z,76412.53
2023-05-04T08:49:23.832Z,76279.84
2023-05-04T08:56:59.071Z,76285.97
2023-05-04T09:04:34.291Z,76302.31
2023-05-04T09:12:08.556Z,76298.22
2023-05-04T09:19:45.018Z,76208.41
2023-05-04T09:27:19.024Z,76167.59
2023-05-04T09:34:56.270Z,76181.88
2023-05-04T09:42:30.168Z,76169.63
2023-05-04T09:50:21.000Z,76216.56
2023-05-04T09:57:55.648Z,76141.06
2023-05-04T10:05:31.693Z,76092.06
2023-05-04T10:13:05.737Z,76094.13
2023-05-04T10:21:01.403Z,76094.13
2023-05-04T10:28:46.648Z,76085.94
2023-05-04T10:44:13.552Z,76128.81
2023-05-04T10:51:49.577Z,76171.69
2023-05-04T11:07:18.335Z,76067.59
2023-05-04T11:22:44.916Z,76088.00
2023-05-04T11:30:18.833Z,76075.75
2023-05-04T11:37:55.487Z,76065.53
2023-05-04T11:45:32.457Z,76075.75
2023-05-04T11:53:10.014Z,76067.59
2023-05-04T12:00:45.487Z,76034.94
2023-05-04T12:08:27.950Z,76028.81
2023-05-04T12:16:09.886Z,76002.28
2023-05-04T12:23:45.746Z,75977.78
2023-05-04T12:31:20.206Z,75965.53
2023-05-04T12:38:55.431Z,75971.66
2023-05-04T12:46:29.468Z,75965.53
2023-05-04T12:54:05.023Z,75990.03
2023-05-04T13:01:40.121Z,75969.63
2023-05-04T13:09:15.624Z,75945.13
2023-05-04T13:16:51.027Z,75922.69
2023-05-04T13:24:26.274Z,75914.53
2023-05-04T13:32:00.167Z,75885.94
2023-05-04T13:39:41.363Z,75865.53
2023-05-04T13:47:16.486Z,75841.06
2023-05-04T13:54:52.682Z,75845.13
2023-05-04T14:02:47.276Z,75800.22
2023-05-04T14:18:33.374Z,75759.41
2023-05-04T14:35:09.025Z,75688.00
2023-05-04T14:42:44.808Z,75692.06
2023-05-04T14:50:19.031Z,75706.34
2023-05-04T14:57:54.285Z,75714.53
2023-05-04T15:05:28.196Z,75700.25
2023-05-04T15:13:03.914Z,75718.59
2023-05-04T15:20:38.668Z,75616.56
2023-05-04T15:28:13.999Z,75626.78
2023-05-04T15:35:47.755Z,75567.59
2023-05-04T15:43:23.075Z,75585.97
2023-05-04T15:50:57.347Z,75636.97
2023-05-04T15:58:32.898Z,75651.25
2023-05-04T16:06:08.696Z,75649.22
2023-05-04T16:13:43.975Z,75651.25
2023-05-04T16:21:17.853Z,75653.31
2023-05-04T16:28:53.048Z,75681.88
2023-05-04T16:36:26.914Z,75690.03
2023-05-04T16:44:02.142Z,75688.00
2023-05-04T16:51:36.144Z,75710.44
2023-05-04T16:59:21.023Z,75730.84
2023-05-04T17:06:55.079Z,75726.78
2023-05-04T17:14:30.446Z,75741.06
2023-05-04T17:22:04.199Z,75757.38
2023-05-04T17:29:40.974Z,75763.50
2023-05-04T17:37:14.836Z,75775.75
2023-05-04T17:44:50.181Z,75779.81
2023-05-04T17:52:24.234Z,75798.19
2023-05-04T18:01:02.565Z,75810.44
2023-05-04T18:09:19.545Z,75834.94
2023-05-04T18:17:27.388Z,75853.28
2023-05-04T18:25:02.537Z,75881.88
2023-05-04T18:32:37.895Z,75902.28
2023-05-04T18:40:13.336Z,75930.84
2023-05-04T18:47:49.268Z,75943.09
2023-05-04T18:55:23.524Z,75971.66
2023-05-04T19:02:59.215Z,75994.13
2023-05-04T19:26:18.589Z,76053.28
2023-05-04T19:33:54.103Z,76067.59
2023-05-04T19:49:21.918Z,76100.25
2023-05-04T20:04:48.735Z,76120.66
2023-05-04T20:12:22.680Z,76124.72
2023-05-04T20:19:58.179Z,76126.78
2023-05-04T20:35:24.999Z,76151.25
2023-05-04T20:42:58.855Z,76163.50
2023-05-04T20:50:34.305Z,76169.63
2023-05-04T21:06:00.885Z,76198.22
2023-05-04T21:13:34.860Z,76210.44
2023-05-04T21:21:10.251Z,76226.78
2023-05-04T21:28:44.489Z,76236.97
2023-05-04T21:36:20.427Z,76247.19
2023-05-04T21:43:54.219Z,76265.56
2023-05-04T21:51:30.160Z,76283.94
2023-05-04T21:59:04.228Z,76302.31
2023-05-04T22:06:39.498Z,76312.50
2023-05-04T22:14:13.493Z,76337.00
2023-05-04T22:21:49.149Z,76367.63
2023-05-04T22:29:24.484Z,76381.91
2023-05-04T22:36:59.749Z,76406.41
2023-05-04T22:44:34.924Z,76422.72
2023-05-04T22:52:10.538Z,76428.84
2023-05-04T22:59:44.822Z,76437.00
2023-05-04T23:07:20.294Z,76449.25
2023-05-04T23:14:54.757Z,76463.53
2023-05-04T23:22:30.296Z,76483.97
2023-05-04T23:30:04.803Z,76490.09
2023-05-04T23:37:40.107Z,76514.56
2023-05-04T23:45:14.306Z,76520.69
2023-05-04T23:52:49.561Z,76535.00
